sensor_id;sensor_type;location;lat;lon;timestamp;pressure;altitude;pressure_sealevel;temperature;humidity
68712;BME280;55690;51.566;19.198;2022-09-13T00:00:35;101537.85;;;9.80;100.00
68712;BME280;55690;51.566;19.198;2022-09-13T00:04:42;101544.41;;;9.76;100.00
68712;BME280;55690;51.566;19.198;2022-09-13T00:08:45;101540.39;;;9.67;100.00
68712;BME280;55690;51.566;19.198;2022-09-13T00:12:50;101531.81;;;9.59;100.00
68712;BME280;55690;51.566;19.198;2022-09-13T00:17:00;101537.07;;;9.62;100.00
68712;BME280;55690;51.566;19.198;2022-09-13T00:21:08;101540.41;;;9.52;100.00
68712;BME280;55690;51.566;19.198;2022-09-13T00:25:10;101536.73;;;9.53;100.00
68712;BME280;55690;51.566;19.198;2022-09-13T00:29:15;101531.57;;;9.48;100.00
68712;BME280;55690;51.566;19.198;2022-09-13T00:33:21;101530.70;;;9.48;100.00
68712;BME280;55690;51.566;19.198;2022-09-13T00:41:37;101527.63;;;9.38;100.00
68712;BME280;55690;51.566;19.198;2022-09-13T00:45:40;101527.27;;;9.28;100.00
68712;BME280;55690;51.566;19.198;2022-09-13T01:02:13;101512.23;;;9.07;100.00
68712;BME280;55690;51.566;19.198;2022-09-13T01:06:22;101515.45;;;8.98;100.00
68712;BME280;55690;51.566;19.198;2022-09-13T01:10:28;101508.97;;;9.00;100.00
68712;BME280;55690;51.566;19.198;2022-09-13T01:18:36;101506.06;;;8.88;100.00
68712;BME280;55690;51.566;19.198;2022-09-13T01:48:13;101490.80;;;8.70;100.00
68712;BME280;55690;51.566;19.198;2022-09-13T02:01:02;101487.99;;;8.55;100.00
68712;BME280;55690;51.566;19.198;2022-09-13T02:05:54;101475.66;;;8.50;100.00
68712;BME280;55690;51.566;19.198;2022-09-13T02:09:24;101469.37;;;8.49;100.00
68712;BME280;55690;51.566;19.198;2022-09-13T02:21:42;101465.13;;;8.26;100.00
68712;BME280;55690;51.566;19.198;2022-09-13T02:29:56;101461.31;;;8.30;100.00
68712;BME280;55690;51.566;19.198;2022-09-13T02:34:03;101459.56;;;8.29;100.00
68712;BME280;55690;51.566;19.198;2022-09-13T02:38:12;101457.65;;;8.31;100.00
68712;BME280;55690;51.566;19.198;2022-09-13T02:42:20;101456.77;;;8.31;100.00
68712;BME280;55690;51.566;19.198;2022-09-13T02:59:09;101445.68;;;8.20;100.00
68712;BME280;55690;51.566;19.198;2022-09-13T03:03:14;101443.13;;;8.17;100.00
68712;BME280;55690;51.566;19.198;2022-09-13T03:07:22;101435.73;;;8.20;100.00
68712;BME280;55690;51.566;19.198;2022-09-13T03:11:33;101448.91;;;8.26;100.00
68712;BME280;55690;51.566;19.198;2022-09-13T03:20:06;101448.91;;;8.26;100.00
68712;BME280;55690;51.566;19.198;2022-09-13T03:32:47;101429.80;;;8.29;100.00
68712;BME280;55690;51.566;19.198;2022-09-13T03:41:04;101437.78;;;8.32;100.00
68712;BME280;55690;51.566;19.198;2022-09-13T03:53:26;101421.05;;;8.24;100.00
68712;BME280;55690;51.566;19.198;2022-09-13T04:01:38;101418.45;;;8.23;100.00
68712;BME280;55690;51.566;19.198;2022-09-13T04:05:44;101419.06;;;8.28;100.00
68712;BME280;55690;51.566;19.198;2022-09-13T04:09:55;101415.91;;;8.20;100.00
68712;BME280;55690;51.566;19.198;2022-09-13T04:13:56;101413.05;;;8.23;100.00
68712;BME280;55690;51.566;19.198;2022-09-13T04:18:05;101413.30;;;8.18;100.00
68712;BME280;55690;51.566;19.198;2022-09-13T04:22:07;101405.74;;;8.08;100.00
68712;BME280;55690;51.566;19.198;2022-09-13T04:26:13;101404.23;;;8.02;100.00
68712;BME280;55690;51.566;19.198;2022-09-13T04:30:19;101394.05;;;8.07;100.00
68712;BME280;55690;51.566;19.198;2022-09-13T04:34:35;101392.06;;;7.93;100.00
68712;BME280;55690;51.566;19.198;2022-09-13T04:38:46;101388.16;;;7.82;100.00
68712;BME280;55690;51.566;19.198;2022-09-13T04:42:49;101385.47;;;7.82;100.00
68712;BME280;55690;51.566;19.198;2022-09-13T04:51:02;101389.52;;;7.90;100.00
68712;BME280;55690;51.566;19.198;2022-09-13T04:55:07;101392.30;;;8.06;100.00
68712;BME280;55690;51.566;19.198;2022-09-13T04:59:10;101391.89;;;8.14;100.00
68712;BME280;55690;51.566;19.198;2022-09-13T05:03:13;101396.43;;;8.13;100.00
68712;BME280;55690;51.566;19.198;2022-09-13T05:07:24;101396.10;;;8.19;100.00
68712;BME280;55690;51.566;19.198;2022-09-13T05:11:27;101393.74;;;8.29;100.00
68712;BME280;55690;51.566;19.198;2022-09-13T05:23:53;101392.12;;;8.59;100.00
68712;BME280;55690;51.566;19.198;2022-09-13T05:27:54;101381.39;;;8.89;100.00
68712;BME280;55690;51.566;19.198;2022-09-13T05:32:00;101380.84;;;9.14;100.00
68712;BME280;55690;51.566;19.198;2022-09-13T05:36:04;101380.23;;;9.25;100.00
68712;BME280;55690;51.566;19.198;2022-09-13T05:40:06;101391.60;;;9.61;100.00
68712;BME280;55690;51.566;19.198;2022-09-13T05:44:08;101391.88;;;9.87;100.00
68712;BME280;55690;51.566;19.198;2022-09-13T05:48:10;101396.25;;;10.04;100.00
68712;BME280;55690;51.566;19.198;2022-09-13T05:52:12;101401.28;;;10.25;100.00
68712;BME280;55690;51.566;19.198;2022-09-13T05:56:16;101402.34;;;10.51;100.00
68712;BME280;55690;51.566;19.198;2022-09-13T06:00:18;101398.38;;;10.71;100.00
68712;BME280;55690;51.566;19.198;2022-09-13T06:04:20;101385.70;;;10.98;100.00
68712;BME280;55690;51.566;19.198;2022-09-13T06:08:23;101393.77;;;11.27;100.00
68712;BME280;55690;51.566;19.198;2022-09-13T06:12:25;101375.25;;;11.46;100.00
68712;BME280;55690;51.566;19.198;2022-09-13T06:24:55;101349.70;;;12.26;100.00
68712;BME280;55690;51.566;19.198;2022-09-13T06:33:07;101334.72;;;12.70;100.00
68712;BME280;55690;51.566;19.198;2022-09-13T06:37:08;101342.52;;;12.87;100.00
68712;BME280;55690;51.566;19.198;2022-09-13T06:45:23;101342.82;;;13.32;100.00
68712;BME280;55690;51.566;19.198;2022-09-13T06:49:24;101340.64;;;13.48;100.00
68712;BME280;55690;51.566;19.198;2022-09-13T06:57:34;101334.22;;;13.95;100.00
68712;BME280;55690;51.566;19.198;2022-09-13T07:01:41;101330.69;;;14.28;100.00
68712;BME280;55690;51.566;19.198;2022-09-13T07:05:50;101330.70;;;14.51;100.00
68712;BME280;55690;51.566;19.198;2022-09-13T07:09:52;101330.70;;;14.51;100.00
68712;BME280;55690;51.566;19.198;2022-09-13T07:13:56;101321.23;;;14.77;100.00
68712;BME280;55690;51.566;19.198;2022-09-13T07:17:58;101327.57;;;14.78;100.00
68712;BME280;55690;51.566;19.198;2022-09-13T07:22:00;101329.92;;;14.82;100.00
68712;BME280;55690;51.566;19.198;2022-09-13T07:26:06;101319.97;;;14.92;100.00
68712;BME280;55690;51.566;19.198;2022-09-13T07:30:10;101319.23;;;14.90;100.00
68712;BME280;55690;51.566;19.198;2022-09-13T07:34:17;101315.97;;;15.08;100.00
68712;BME280;55690;51.566;19.198;2022-09-13T07:38:20;101305.45;;;15.24;100.00
68712;BME280;55690;51.566;19.198;2022-09-13T07:42:22;101312.38;;;15.39;100.00
68712;BME280;55690;51.566;19.198;2022-09-13T07:46:25;101304.20;;;15.28;100.00
68712;BME280;55690;51.566;19.198;2022-09-13T07:50:35;101298.38;;;15.53;100.00
68712;BME280;55690;51.566;19.198;2022-09-13T07:54:47;101304.71;;;15.22;100.00
68712;BME280;55690;51.566;19.198;2022-09-13T08:03:03;101278.71;;;15.80;100.00
68712;BME280;55690;51.566;19.198;2022-09-13T08:07:05;101291.17;;;16.45;100.00
68712;BME280;55690;51.566;19.198;2022-09-13T08:15:11;101307.96;;;16.61;100.00
68712;BME280;55690;51.566;19.198;2022-09-13T08:19:15;101299.77;;;17.21;100.00
68712;BME280;55690;51.566;19.198;2022-09-13T08:23:17;101293.38;;;17.01;100.00
68712;BME280;55690;51.566;19.198;2022-09-13T08:27:19;101297.01;;;17.11;100.00
68712;BME280;55690;51.566;19.198;2022-09-13T08:31:20;101294.56;;;17.18;100.00
68712;BME280;55690;51.566;19.198;2022-09-13T08:35:23;101292.98;;;17.44;100.00
68712;BME280;55690;51.566;19.198;2022-09-13T08:39:25;101286.48;;;17.26;100.00
68712;BME280;55690;51.566;19.198;2022-09-13T08:51:44;101274.65;;;17.74;100.00
68712;BME280;55690;51.566;19.198;2022-09-13T09:04:33;101269.57;;;17.40;100.00
68712;BME280;55690;51.566;19.198;2022-09-13T09:16:54;101247.14;;;17.83;98.13
68712;BME280;55690;51.566;19.198;2022-09-13T09:29:18;101234.80;;;18.34;96.38
68712;BME280;55690;51.566;19.198;2022-09-13T09:41:43;101236.40;;;18.37;93.87
68712;BME280;55690;51.566;19.198;2022-09-13T09:45:53;101227.19;;;18.55;93.44
68712;BME280;55690;51.566;19.198;2022-09-13T09:54:03;101226.42;;;18.63;90.89
68712;BME280;55690;51.566;19.198;2022-09-13T09:58:07;101217.56;;;18.69;90.72
68712;BME280;55690;51.566;19.198;2022-09-13T10:18:52;101192.59;;;18.63;90.37
68712;BME280;55690;51.566;19.198;2022-09-13T10:27:02;101182.87;;;19.04;92.20
68712;BME280;55690;51.566;19.198;2022-09-13T10:31:11;101175.37;;;19.14;90.66
68712;BME280;55690;51.566;19.198;2022-09-13T10:39:21;101160.38;;;19.52;88.25
68712;BME280;55690;51.566;19.198;2022-09-13T10:43:26;101152.77;;;19.28;86.19
68712;BME280;55690;51.566;19.198;2022-09-13T10:51:38;101135.37;;;19.45;87.30
68712;BME280;55690;51.566;19.198;2022-09-13T10:55:41;101131.27;;;19.49;85.33
68712;BME280;55690;51.566;19.198;2022-09-13T11:29:25;101083.27;;;19.86;84.31
68712;BME280;55690;51.566;19.198;2022-09-13T11:41:42;101069.73;;;19.67;85.18
68712;BME280;55690;51.566;19.198;2022-09-13T11:46:02;101075.25;;;19.67;84.33
68712;BME280;55690;51.566;19.198;2022-09-13T11:50:17;101054.41;;;19.64;84.79
68712;BME280;55690;51.566;19.198;2022-09-13T11:58:32;101056.57;;;19.52;83.91
68712;BME280;55690;51.566;19.198;2022-09-13T12:06:51;101053.75;;;19.70;85.14
68712;BME280;55690;51.566;19.198;2022-09-13T12:15:05;101029.48;;;19.74;83.76
68712;BME280;55690;51.566;19.198;2022-09-13T12:19:20;101036.06;;;19.81;84.14
68712;BME280;55690;51.566;19.198;2022-09-13T12:23:32;101038.45;;;19.76;85.10
68712;BME280;55690;51.566;19.198;2022-09-13T12:40:33;101000.70;;;19.68;84.38
68712;BME280;55690;51.566;19.198;2022-09-13T12:44:49;100998.90;;;20.01;85.95
68712;BME280;55690;51.566;19.198;2022-09-13T13:01:36;100987.41;;;20.22;83.36
68712;BME280;55690;51.566;19.198;2022-09-13T13:09:51;100980.99;;;20.05;82.97
68712;BME280;55690;51.566;19.198;2022-09-13T13:13:56;100977.62;;;20.44;84.64
68712;BME280;55690;51.566;19.198;2022-09-13T13:34:50;100960.12;;;19.94;84.92
68712;BME280;55690;51.566;19.198;2022-09-13T13:53:35;100941.67;;;19.79;85.03
68712;BME280;55690;51.566;19.198;2022-09-13T14:01:57;100927.80;;;19.54;85.66
68712;BME280;55690;51.566;19.198;2022-09-13T14:06:53;100929.00;;;19.52;86.44
68712;BME280;55690;51.566;19.198;2022-09-13T14:10:32;100933.57;;;19.35;86.60
68712;BME280;55690;51.566;19.198;2022-09-13T14:27:21;100918.98;;;19.43;89.81
68712;BME280;55690;51.566;19.198;2022-09-13T14:31:24;100908.80;;;19.35;89.56
68712;BME280;55690;51.566;19.198;2022-09-13T14:35:32;100907.44;;;19.39;89.58
68712;BME280;55690;51.566;19.198;2022-09-13T14:39:34;100904.84;;;19.38;90.31
68712;BME280;55690;51.566;19.198;2022-09-13T14:43:35;100899.70;;;19.43;90.48
68712;BME280;55690;51.566;19.198;2022-09-13T14:47:46;100895.88;;;19.36;90.97
68712;BME280;55690;51.566;19.198;2022-09-13T14:51:55;100894.28;;;19.25;91.08
68712;BME280;55690;51.566;19.198;2022-09-13T14:56:06;100889.30;;;19.28;91.82
68712;BME280;55690;51.566;19.198;2022-09-13T15:00:16;100892.68;;;19.14;91.94
68712;BME280;55690;51.566;19.198;2022-09-13T15:04:33;100895.77;;;19.11;91.86
68712;BME280;55690;51.566;19.198;2022-09-13T15:08:45;100892.15;;;19.11;92.59
68712;BME280;55690;51.566;19.198;2022-09-13T15:13:13;100890.25;;;19.03;94.17
68712;BME280;55690;51.566;19.198;2022-09-13T15:21:05;100883.55;;;19.06;94.24
68712;BME280;55690;51.566;19.198;2022-09-13T15:25:22;100881.63;;;19.06;94.25
68712;BME280;55690;51.566;19.198;2022-09-13T15:29:28;100870.61;;;18.98;94.40
68712;BME280;55690;51.566;19.198;2022-09-13T15:33:37;100875.91;;;18.91;96.58
68712;BME280;55690;51.566;19.198;2022-09-13T15:41:50;100866.95;;;18.89;95.35
68712;BME280;55690;51.566;19.198;2022-09-13T15:45:52;100869.00;;;18.87;96.47
68712;BME280;55690;51.566;19.198;2022-09-13T15:54:12;100861.89;;;18.77;96.71
68712;BME280;55690;51.566;19.198;2022-09-13T15:58:14;100847.27;;;18.76;96.82
68712;BME280;55690;51.566;19.198;2022-09-13T16:02:24;100840.00;;;18.67;97.10
68712;BME280;55690;51.566;19.198;2022-09-13T16:06:27;100852.40;;;18.71;96.95
68712;BME280;55690;51.566;19.198;2022-09-13T16:10:33;100846.03;;;18.71;97.35
68712;BME280;55690;51.566;19.198;2022-09-13T16:14:35;100845.86;;;18.72;96.58
68712;BME280;55690;51.566;19.198;2022-09-13T16:22:41;100845.06;;;18.54;98.79
68712;BME280;55690;51.566;19.198;2022-09-13T16:26:43;100837.62;;;18.46;98.80
68712;BME280;55690;51.566;19.198;2022-09-13T16:30:46;100834.00;;;18.46;99.26
68712;BME280;55690;51.566;19.198;2022-09-13T16:34:48;100829.69;;;18.43;99.05
68712;BME280;55690;51.566;19.198;2022-09-13T16:38:55;100835.34;;;18.42;99.79
68712;BME280;55690;51.566;19.198;2022-09-13T16:47:01;100820.15;;;18.29;100.00
68712;BME280;55690;51.566;19.198;2022-09-13T16:55:11;100822.99;;;18.20;100.00
68712;BME280;55690;51.566;19.198;2022-09-13T16:59:26;100814.80;;;18.02;100.00
68712;BME280;55690;51.566;19.198;2022-09-13T17:03:32;100784.05;;;17.81;100.00
68712;BME280;55690;51.566;19.198;2022-09-13T17:07:43;100817.94;;;18.07;100.00
68712;BME280;55690;51.566;19.198;2022-09-13T17:11:53;100814.96;;;18.01;100.00
68712;BME280;55690;51.566;19.198;2022-09-13T17:15:55;100814.02;;;17.92;100.00
68712;BME280;55690;51.566;19.198;2022-09-13T17:19:57;100820.23;;;17.94;100.00
68712;BME280;55690;51.566;19.198;2022-09-13T17:24:00;100816.23;;;17.88;100.00
68712;BME280;55690;51.566;19.198;2022-09-13T17:28:05;100810.81;;;17.79;100.00
68712;BME280;55690;51.566;19.198;2022-09-13T17:36:13;100813.91;;;17.76;100.00
68712;BME280;55690;51.566;19.198;2022-09-13T17:40:14;100807.05;;;17.80;100.00
68712;BME280;55690;51.566;19.198;2022-09-13T17:44:16;100810.97;;;17.77;100.00
68712;BME280;55690;51.566;19.198;2022-09-13T17:48:18;100806.18;;;17.79;100.00
68712;BME280;55690;51.566;19.198;2022-09-13T17:52:20;100806.02;;;17.81;100.00
68712;BME280;55690;51.566;19.198;2022-09-13T18:00:30;100803.59;;;17.78;100.00
68712;BME280;55690;51.566;19.198;2022-09-13T18:04:41;100807.36;;;17.77;100.00
68712;BME280;55690;51.566;19.198;2022-09-13T18:08:43;100804.57;;;17.69;100.00
68712;BME280;55690;51.566;19.198;2022-09-13T18:12:45;100810.38;;;17.66;100.00
68712;BME280;55690;51.566;19.198;2022-09-13T18:16:46;100816.45;;;17.59;100.00
68712;BME280;55690;51.566;19.198;2022-09-13T18:29:12;100807.28;;;17.51;100.00
68712;BME280;55690;51.566;19.198;2022-09-13T18:33:16;100802.34;;;17.54;100.00
68712;BME280;55690;51.566;19.198;2022-09-13T18:41:38;100804.37;;;17.52;100.00
68712;BME280;55690;51.566;19.198;2022-09-13T18:49:57;100812.61;;;17.52;100.00
68712;BME280;55690;51.566;19.198;2022-09-13T18:54:00;100812.38;;;17.46;100.00
68712;BME280;55690;51.566;19.198;2022-09-13T18:58:02;100817.00;;;17.27;100.00
68712;BME280;55690;51.566;19.198;2022-09-13T19:02:05;100835.86;;;17.13;100.00
68712;BME280;55690;51.566;19.198;2022-09-13T19:06:12;100839.71;;;16.92;100.00
68712;BME280;55690;51.566;19.198;2022-09-13T19:10:24;100833.44;;;16.82;100.00
68712;BME280;55690;51.566;19.198;2022-09-13T19:14:27;100829.56;;;16.75;100.00
68712;BME280;55690;51.566;19.198;2022-09-13T19:18:39;100832.31;;;16.75;100.00
68712;BME280;55690;51.566;19.198;2022-09-13T19:22:43;100822.21;;;16.76;100.00
68712;BME280;55690;51.566;19.198;2022-09-13T19:26:48;100825.13;;;16.65;100.00
68712;BME280;55690;51.566;19.198;2022-09-13T19:31:04;100830.31;;;16.58;100.00
68712;BME280;55690;51.566;19.198;2022-09-13T19:35:08;100820.66;;;16.54;100.00
68712;BME280;55690;51.566;19.198;2022-09-13T19:39:10;100814.04;;;16.47;100.00
68712;BME280;55690;51.566;19.198;2022-09-13T19:43:12;100808.55;;;16.47;100.00
68712;BME280;55690;51.566;19.198;2022-09-13T19:47:14;100820.21;;;16.58;100.00
68712;BME280;55690;51.566;19.198;2022-09-13T19:51:21;100818.78;;;16.54;100.00
68712;BME280;55690;51.566;19.198;2022-09-13T19:55:24;100795.69;;;16.57;100.00
68712;BME280;55690;51.566;19.198;2022-09-13T19:59:26;100803.50;;;16.52;100.00
68712;BME280;55690;51.566;19.198;2022-09-13T20:07:46;100772.55;;;16.42;100.00
68712;BME280;55690;51.566;19.198;2022-09-13T20:11:48;100774.05;;;16.54;100.00
68712;BME280;55690;51.566;19.198;2022-09-13T20:20:17;100779.24;;;16.57;100.00
68712;BME280;55690;51.566;19.198;2022-09-13T20:24:22;100775.48;;;16.58;100.00
68712;BME280;55690;51.566;19.198;2022-09-13T20:28:28;100774.66;;;16.48;100.00
68712;BME280;55690;51.566;19.198;2022-09-13T20:32:45;100766.70;;;16.54;100.00
68712;BME280;55690;51.566;19.198;2022-09-13T20:36:54;100763.95;;;16.54;100.00
68712;BME280;55690;51.566;19.198;2022-09-13T20:41:02;100761.66;;;16.50;100.00
68712;BME280;55690;51.566;19.198;2022-09-13T20:49:09;100751.22;;;16.36;100.00
68712;BME280;55690;51.566;19.198;2022-09-13T20:53:13;100762.92;;;16.28;100.00
68712;BME280;55690;51.566;19.198;2022-09-13T20:57:21;100762.06;;;16.27;100.00
68712;BME280;55690;51.566;19.198;2022-09-13T21:01:23;100762.23;;;16.16;100.00
68712;BME280;55690;51.566;19.198;2022-09-13T21:05:25;100768.01;;;16.13;100.00
68712;BME280;55690;51.566;19.198;2022-09-13T21:09:27;100760.45;;;15.88;100.00
68712;BME280;55690;51.566;19.198;2022-09-13T21:21:40;100756.55;;;15.90;100.00
68712;BME280;55690;51.566;19.198;2022-09-13T21:29:46;100752.39;;;15.77;100.00
68712;BME280;55690;51.566;19.198;2022-09-13T21:33:57;100751.67;;;15.65;100.00
68712;BME280;55690;51.566;19.198;2022-09-13T21:42:04;100751.53;;;15.47;100.00
68712;BME280;55690;51.566;19.198;2022-09-13T21:54:24;100734.39;;;15.45;100.00
68712;BME280;55690;51.566;19.198;2022-09-13T21:58:27;100735.83;;;15.49;100.00
68712;BME280;55690;51.566;19.198;2022-09-13T22:06:35;100731.07;;;15.61;100.00
68712;BME280;55690;51.566;19.198;2022-09-13T22:19:03;100735.25;;;15.46;100.00
68712;BME280;55690;51.566;19.198;2022-09-13T22:31:40;100744.91;;;15.30;100.00
68712;BME280;55690;51.566;19.198;2022-09-13T22:35:42;100743.31;;;15.28;100.00
68712;BME280;55690;51.566;19.198;2022-09-13T22:39:48;100740.72;;;15.26;100.00
68712;BME280;55690;51.566;19.198;2022-09-13T22:43:51;100746.33;;;15.25;100.00
68712;BME280;55690;51.566;19.198;2022-09-13T22:47:58;100742.88;;;15.23;100.00
68712;BME280;55690;51.566;19.198;2022-09-13T22:52:04;100744.32;;;15.27;100.00
68712;BME280;55690;51.566;19.198;2022-09-13T22:56:17;100742.73;;;15.24;100.00
68712;BME280;55690;51.566;19.198;2022-09-13T23:00:19;100742.30;;;15.19;100.00
68712;BME280;55690;51.566;19.198;2022-09-13T23:04:21;100745.05;;;15.10;100.00
68712;BME280;55690;51.566;19.198;2022-09-13T23:08:23;100744.60;;;15.05;100.00
68712;BME280;55690;51.566;19.198;2022-09-13T23:12:24;100739.14;;;15.05;100.00
68712;BME280;55690;51.566;19.198;2022-09-13T23:24:59;100742.72;;;14.95;100.00
68712;BME280;55690;51.566;19.198;2022-09-13T23:29:02;100739.97;;;14.86;100.00
68712;BME280;55690;51.566;19.198;2022-09-13T23:33:08;100743.42;;;14.88;100.00
68712;BME280;55690;51.566;19.198;2022-09-13T23:37:12;100744.84;;;14.82;100.00
68712;BME280;55690;51.566;19.198;2022-09-13T23:41:14;100739.38;;;14.82;100.00
68712;BME280;55690;51.566;19.198;2022-09-13T23:45:17;100741.95;;;14.74;100.00
68712;BME280;55690;51.566;19.198;2022-09-13T23:49:19;100736.93;;;14.70;100.00
68712;BME280;55690;51.566;19.198;2022-09-13T23:53:20;100752.02;;;14.64;100.00
68712;BME280;55690;51.566;19.198;2022-09-13T23:57:22;100737.45;;;14.54;100.00
